Time;durP1;ratioP1;P1;durP2;ratioP2;P2;SDS_P1;SDS_P2;PMS_P1;PMS_P2;Temp;Humidity;BMP_temperature;BMP_pressure;BME280_temperature;BME280_humidity;BME280_pressure;Samples;Min_cycle;Max_cycle;Signal;HPM_P1;HPM_P2
2021/10/20 00:02:28;;;;;;;175.30;70.87;;;;;;;7.86;76.73;102750.77;1716828;83;21238;-73
2021/10/20 00:05:00;;;;;;;185.22;75.75;;;;;;;7.85;76.89;102754.58;1716493;83;21198;-73
2021/10/20 00:07:33;;;;;;;178.93;71.72;;;;;;;7.86;76.90;102755.78;1716709;83;21325;-74
2021/10/20 00:10:07;;;;;;;178.78;75.12;;;;;;;7.86;76.90;102761.31;1716981;83;21172;-73
2021/10/20 00:12:40;;;;;;;165.85;68.67;;;;;;;7.86;76.85;102753.53;1717118;83;21369;-73
2021/10/20 00:15:14;;;;;;;163.40;65.42;;;;;;;7.83;76.79;102757.53;1716964;83;21759;-70
2021/10/20 00:17:47;;;;;;;166.85;66.07;;;;;;;7.83;76.85;102756.15;1704561;83;21250;-71
2021/10/20 00:20:23;;;;;;;162.65;65.40;;;;;;;7.83;76.89;102752.00;1692780;83;21332;-74
2021/10/20 00:22:55;;;;;;;157.88;60.75;;;;;;;7.86;77.05;102755.78;1716573;83;22754;-71
2021/10/20 00:25:29;;;;;;;160.03;62.58;;;;;;;7.86;77.06;102753.53;1689641;82;21756;-71
2021/10/20 00:28:02;;;;;;;160.97;61.45;;;;;;;7.76;77.00;102751.06;1692139;83;21221;-71
2021/10/20 00:30:34;;;;;;;147.15;59.70;;;;;;;7.72;77.29;102742.80;1718452;83;21167;-72
2021/10/20 00:33:07;;;;;;;131.87;57.85;;;;;;;7.73;77.41;102742.29;1718105;81;21329;-70
2021/10/20 00:35:39;;;;;;;165.90;60.98;;;;;;;7.75;77.68;102738.28;1717898;83;21379;-72
2021/10/20 00:38:11;;;;;;;153.35;61.13;;;;;;;7.81;77.87;102747.20;1718292;83;21328;-71
2021/10/20 00:40:44;;;;;;;140.03;59.27;;;;;;;7.86;77.82;102737.81;1718385;83;21320;-71
2021/10/20 00:43:19;;;;;;;133.85;55.65;;;;;;;7.90;77.71;102744.65;1725317;82;21317;-72
2021/10/20 00:45:51;;;;;;;140.32;56.13;;;;;;;7.93;77.67;102741.52;1748269;82;21328;-71
2021/10/20 00:48:24;;;;;;;142.37;55.55;;;;;;;7.94;77.65;102741.84;1744647;82;21191;-71
2021/10/20 00:50:56;;;;;;;145.30;58.52;;;;;;;7.97;77.73;102734.52;1739444;82;21384;-73
2021/10/20 00:53:28;;;;;;;146.75;56.05;;;;;;;7.99;77.71;102739.88;1739275;82;21198;-70
2021/10/20 00:56:01;;;;;;;145.57;58.83;;;;;;;8.00;77.63;102741.06;1739405;82;21380;-70
2021/10/20 00:58:34;;;;;;;148.20;54.73;;;;;;;8.01;77.48;102745.55;1739283;82;21210;-71
2021/10/20 01:01:06;;;;;;;147.53;55.12;;;;;;;8.02;77.43;102741.72;1739249;82;21195;-70
2021/10/20 01:03:39;;;;;;;140.77;53.87;;;;;;;8.04;77.40;102741.02;1735040;82;21285;-69
2021/10/20 01:06:12;;;;;;;141.75;57.80;;;;;;;8.06;77.43;102741.67;1710940;82;21827;-71
2021/10/20 01:08:45;;;;;;;135.35;55.05;;;;;;;8.12;77.52;102740.03;1739346;82;21206;-71
2021/10/20 01:11:17;;;;;;;134.87;56.15;;;;;;;8.17;77.66;102741.69;1739266;82;21379;-70
2021/10/20 01:13:50;;;;;;;135.52;53.80;;;;;;;8.18;77.54;102742.89;1739264;82;21309;-69
2021/10/20 01:16:25;;;;;;;135.32;52.45;;;;;;;8.18;77.49;102737.88;1739420;82;21325;-71
2021/10/20 01:18:58;;;;;;;118.77;49.08;;;;;;;8.22;77.65;102740.11;1719411;82;21174;-70
2021/10/20 01:21:31;;;;;;;125.87;51.80;;;;;;;8.24;77.67;102740.77;1746915;82;21174;-70
2021/10/20 01:24:04;;;;;;;123.97;51.03;;;;;;;8.31;77.77;102737.54;1701415;84;21969;-71
2021/10/20 01:26:38;;;;;;;115.75;49.08;;;;;;;8.32;77.58;102743.41;1701175;84;21938;-71
2021/10/20 01:29:11;;;;;;;125.62;49.65;;;;;;;8.29;77.60;102734.64;1746681;82;21376;-70
2021/10/20 01:31:51;;;;;;;111.55;46.68;;;;;;;8.31;77.55;102742.20;1700927;84;21313;-70
2021/10/20 01:34:24;;;;;;;138.77;50.12;;;;;;;8.32;77.55;102735.10;1743271;82;21190;-70
2021/10/20 01:36:57;;;;;;;118.00;47.62;;;;;;;8.35;77.61;102738.01;1701183;84;21356;-70
2021/10/20 01:39:29;;;;;;;116.35;48.65;;;;;;;8.38;77.53;102735.70;1746362;82;21867;-71
2021/10/20 01:42:03;;;;;;;111.65;45.88;;;;;;;8.39;77.34;102740.17;1701028;84;21766;-71
2021/10/20 01:44:37;;;;;;;105.20;44.25;;;;;;;8.39;77.25;102740.73;1746058;82;21353;-72
2021/10/20 01:47:09;;;;;;;98.97;44.25;;;;;;;8.39;77.33;102744.33;1671819;84;21878;-70
2021/10/20 01:49:44;;;;;;;107.32;42.30;;;;;;;8.40;77.30;102743.27;1747519;81;21356;-78
2021/10/20 01:52:17;;;;;;;93.15;40.20;;;;;;;8.43;77.27;102744.28;1754267;81;21206;-77
2021/10/20 01:54:49;;;;;;;100.07;40.65;;;;;;;8.45;77.35;102728.88;1740969;82;21314;-72
2021/10/20 01:57:21;;;;;;;91.22;38.90;;;;;;;8.44;77.24;102736.30;1755211;82;21316;-71
2021/10/20 01:59:54;;;;;;;84.35;37.83;;;;;;;8.43;77.23;102733.72;1661149;86;21317;-73
2021/10/20 02:02:26;;;;;;;91.80;39.00;;;;;;;8.40;77.18;102733.59;1661791;86;21264;-76
2021/10/20 02:05:00;;;;;;;85.22;37.78;;;;;;;8.39;77.14;102736.58;1664308;82;21659;-71
2021/10/20 02:07:33;;;;;;;87.50;40.30;;;;;;;8.38;77.16;102737.09;1659610;86;21767;-71
2021/10/20 02:10:14;;;;;;;88.20;38.90;;;;;;;8.38;77.17;102731.55;1659694;86;21371;-71
2021/10/20 02:12:47;;;;;;;84.07;37.93;;;;;;;8.38;77.03;102733.48;1645166;86;21712;-72
2021/10/20 02:15:19;;;;;;;83.65;35.50;;;;;;;8.34;76.81;102735.75;1659552;86;21372;-72
2021/10/20 02:17:52;;;;;;;73.62;34.18;;;;;;;8.27;76.79;102726.52;1675785;83;21323;-72
2021/10/20 02:20:24;;;;;;;77.67;32.90;;;;;;;8.21;76.80;102723.16;1727568;83;21163;-75
2021/10/20 02:22:57;;;;;;;78.17;33.58;;;;;;;8.18;76.92;102718.50;1773733;79;21336;-72
2021/10/20 02:25:29;;;;;;;91.08;36.98;;;;;;;8.16;77.04;102720.11;1778444;81;21344;-73
2021/10/20 02:28:02;;;;;;;78.97;37.00;;;;;;;8.17;77.09;102710.75;1776554;79;21182;-73
2021/10/20 02:30:34;;;;;;;81.45;34.60;;;;;;;8.15;77.00;102710.61;1728494;82;21191;-74
2021/10/20 02:33:07;;;;;;;78.87;33.65;;;;;;;8.11;76.95;102703.23;1772102;81;21252;-76
2021/10/20 02:35:40;;;;;;;75.80;33.02;;;;;;;8.08;76.97;102707.75;1740534;80;21372;-79
2021/10/20 02:38:13;;;;;;;82.72;35.50;;;;;;;8.02;77.06;102723.74;1736953;82;21379;-78
2021/10/20 02:40:45;;;;;;;74.47;32.63;;;;;;;7.95;77.17;102723.35;1729759;82;21378;-76
2021/10/20 02:43:18;;;;;;;76.15;34.35;;;;;;;7.91;77.37;102723.39;1737996;81;21336;-76
2021/10/20 02:45:50;;;;;;;79.60;34.08;;;;;;;7.85;77.47;102719.47;1748196;81;21540;-78
2021/10/20 02:48:23;;;;;;;72.80;31.47;;;;;;;7.82;77.55;102723.15;1769833;81;21918;-73
2021/10/20 02:50:55;;;;;;;71.87;32.85;;;;;;;7.83;77.46;102715.22;1744208;81;21874;-77
2021/10/20 02:53:28;;;;;;;83.00;35.03;;;;;;;7.84;77.66;102715.00;1721848;81;21202;-79
2021/10/20 02:56:01;;;;;;;79.50;35.65;;;;;;;7.88;77.77;102727.40;1738101;82;21387;-72
2021/10/20 02:58:34;;;;;;;72.17;34.50;;;;;;;7.88;77.61;102721.87;1738491;82;21898;-79
2021/10/20 03:01:06;;;;;;;77.45;33.33;;;;;;;7.85;77.63;102719.47;1738231;81;21230;-72
2021/10/20 03:03:38;;;;;;;74.72;32.23;;;;;;;7.81;77.47;102723.70;1737964;82;21245;-79
2021/10/20 03:06:11;;;;;;;77.85;32.73;;;;;;;7.76;77.50;102723.41;1739088;82;21242;-78
2021/10/20 03:08:44;;;;;;;79.97;33.18;;;;;;;7.76;77.64;102717.87;1740074;81;21221;-78
2021/10/20 03:11:17;;;;;;;79.72;36.13;;;;;;;7.72;77.65;102721.23;1740772;81;21368;-75
2021/10/20 03:13:49;;;;;;;83.12;34.40;;;;;;;7.67;77.71;102725.95;1740253;82;21233;-73
2021/10/20 03:16:22;;;;;;;74.67;33.83;;;;;;;7.65;77.79;102725.27;1739939;81;21357;-80
2021/10/20 03:18:55;;;;;;;72.82;33.18;;;;;;;7.64;77.74;102726.83;1739533;82;21249;-78
2021/10/20 03:21:28;;;;;;;81.17;32.48;;;;;;;7.59;77.69;102723.81;1738669;82;21250;-73
2021/10/20 03:24:01;;;;;;;80.85;34.30;;;;;;;7.57;77.81;102728.66;1709955;83;21185;-73
2021/10/20 03:26:36;;;;;;;78.90;33.73;;;;;;;7.57;77.85;102721.74;1735656;81;21345;-74
2021/10/20 03:29:09;;;;;;;82.53;37.33;;;;;;;7.59;77.96;102728.80;1744636;81;21859;-77
2021/10/20 03:31:42;;;;;;;72.70;33.73;;;;;;;7.60;78.02;102736.03;1699532;84;21346;-80
2021/10/20 03:34:15;;;;;;;80.03;35.07;;;;;;;7.64;77.87;102731.85;1706876;83;21260;-80
2021/10/20 03:36:56;;;;;;;84.52;36.42;;;;;;;7.64;77.87;102731.85;1686218;84;22337;-77
2021/10/20 03:39:29;;;;;;;97.82;38.25;;;;;;;7.65;77.90;102731.34;1711824;83;21225;-76
2021/10/20 03:42:01;;;;;;;95.77;40.35;;;;;;;7.63;77.81;102730.14;1711221;83;21202;-76
2021/10/20 03:44:34;;;;;;;94.72;39.03;;;;;;;7.66;77.91;102733.89;1711310;84;21229;-75
2021/10/20 03:47:07;;;;;;;92.30;38.42;;;;;;;7.68;77.84;102731.81;1711326;84;21217;-77
2021/10/20 03:49:39;;;;;;;85.32;35.05;;;;;;;7.64;77.76;102726.33;1711400;83;21296;-76
2021/10/20 03:52:12;;;;;;;93.90;37.38;;;;;;;7.63;77.73;102737.56;1712109;84;21194;-81
2021/10/20 03:54:44;;;;;;;112.35;40.80;;;;;;;7.60;77.71;102735.20;1706569;82;21769;-77
2021/10/20 03:57:17;;;;;;;97.47;39.42;;;;;;;7.60;77.88;102732.44;1703028;83;21380;-75
2021/10/20 03:59:50;;;;;;;103.27;38.90;;;;;;;7.61;77.89;102736.39;1730714;81;21675;-80
2021/10/20 04:02:22;;;;;;;98.77;38.77;;;;;;;7.58;77.87;102738.66;1702668;84;21472;-79
2021/10/20 04:04:55;;;;;;;101.67;35.90;;;;;;;7.57;77.95;102739.20;1702335;84;21202;-76
2021/10/20 04:07:29;;;;;;;123.02;39.55;;;;;;;7.59;78.06;102739.02;1701603;84;21972;-78
2021/10/20 04:10:01;;;;;;;92.65;37.80;;;;;;;7.64;78.20;102736.51;1677283;82;21946;-75
2021/10/20 04:12:34;;;;;;;100.70;38.92;;;;;;;7.70;78.25;102732.47;1665718;85;21360;-79
2021/10/20 04:15:08;;;;;;;100.47;41.73;;;;;;;7.77;78.24;102734.80;1675290;84;21257;-74
2021/10/20 04:17:41;;;;;;;88.22;36.33;;;;;;;7.81;78.14;102731.98;1673036;84;21198;-71
2021/10/20 04:20:18;;;;;;;72.20;34.37;;;;;;;7.83;78.09;102740.10;1672886;85;21360;-73
2021/10/20 04:22:52;;;;;;;89.32;35.33;;;;;;;7.87;78.12;102738.13;1677707;85;21250;-78
2021/10/20 04:25:24;;;;;;;89.85;36.25;;;;;;;7.92;78.13;102737.03;1672570;84;21926;-77
2021/10/20 04:27:58;;;;;;;77.05;36.75;;;;;;;7.94;78.18;102741.84;1700775;84;21213;-74
2021/10/20 04:30:31;;;;;;;84.87;36.83;;;;;;;7.97;78.40;102742.82;1705697;84;21351;-69
2021/10/20 04:33:04;;;;;;;99.97;36.40;;;;;;;8.01;78.57;102744.67;1708509;83;21255;-74
2021/10/20 04:35:36;;;;;;;99.80;37.00;;;;;;;8.06;78.57;102744.95;1706293;82;22021;-75
2021/10/20 04:38:09;;;;;;;95.33;35.97;;;;;;;8.09;78.64;102731.59;1705457;82;21443;-73
2021/10/20 04:40:41;;;;;;;97.88;36.65;;;;;;;8.16;78.70;102732.56;1704262;82;22098;-69
2021/10/20 04:43:14;;;;;;;90.45;35.95;;;;;;;8.22;78.69;102724.89;1709751;82;21358;-77
2021/10/20 04:45:47;;;;;;;89.65;36.60;;;;;;;8.29;78.70;102727.20;1707707;82;21239;-76
2021/10/20 04:48:19;;;;;;;86.05;37.33;;;;;;;8.35;78.58;102729.19;1705389;82;21224;-74
2021/10/20 04:50:52;;;;;;;109.48;35.95;;;;;;;8.38;78.43;102725.17;1709013;82;21177;-78
2021/10/20 04:53:24;;;;;;;95.35;35.52;;;;;;;8.42;78.44;102731.50;1703996;83;21202;-73
2021/10/20 04:55:57;;;;;;;78.55;34.43;;;;;;;8.44;78.37;102729.93;1652986;85;21264;-78
2021/10/20 04:58:29;;;;;;;94.00;36.33;;;;;;;8.49;78.58;102735.19;1691786;84;21331;-75
2021/10/20 05:01:02;;;;;;;82.85;38.15;;;;;;;8.56;78.60;102729.73;1704660;83;21313;-76
2021/10/20 05:03:35;;;;;;;80.83;33.88;;;;;;;8.59;78.47;102730.71;1703435;84;21967;-72
2021/10/20 05:06:08;;;;;;;73.30;33.65;;;;;;;8.64;78.40;102730.98;1702500;84;21386;-75
2021/10/20 05:08:40;;;;;;;76.85;34.35;;;;;;;8.70;78.37;102732.41;1680304;84;21262;-74
2021/10/20 05:11:15;;;;;;;81.97;34.20;;;;;;;8.76;78.43;102728.85;1645722;86;21355;-76
2021/10/20 05:13:48;;;;;;;81.82;34.23;;;;;;;8.84;78.39;102735.66;1654732;85;21464;-83
2021/10/20 05:16:21;;;;;;;86.57;33.60;;;;;;;8.89;78.24;102738.70;1659093;86;21241;-84
2021/10/20 05:18:54;;;;;;;83.87;33.70;;;;;;;8.95;78.14;102737.90;1680321;85;21274;-80
2021/10/20 05:21:28;;;;;;;84.25;35.65;;;;;;;8.99;78.08;102743.90;1655984;86;21234;-85
2021/10/20 05:24:01;;;;;;;;;;;;;;;9.01;78.06;102750.92;1661277;86;21263;-82
2021/10/20 05:26:33;;;;;;;84.62;34.88;;;;;;;9.03;78.02;102755.76;1658665;84;20610;-82
2021/10/20 05:29:06;;;;;;;82.40;35.55;;;;;;;9.03;78.23;102768.73;1656312;84;21254;-71
2021/10/20 05:31:38;;;;;;;70.80;31.95;;;;;;;9.10;78.30;102768.27;1664393;85;21217;-73
2021/10/20 05:34:11;;;;;;;76.07;33.60;;;;;;;9.15;78.14;102768.02;1659160;85;21261;-70
2021/10/20 05:36:53;;;;;;;78.57;32.23;;;;;;;9.18;77.91;102775.08;1706820;84;21335;-79
2021/10/20 05:39:48;;;;;;;71.15;33.20;;;;;;;9.27;78.04;102776.63;1687696;82;21414;-79
2021/10/20 05:42:24;;;;;;;66.45;31.50;;;;;;;9.45;78.25;102776.47;1701054;84;21269;-78
2021/10/20 05:44:57;;;;;;;92.02;34.80;;;;;;;9.59;78.25;102780.17;1707250;82;22534;-89
2021/10/20 05:47:34;;;;;;;75.15;36.55;;;;;;;9.65;78.10;102780.23;1712203;82;21510;-78
2021/10/20 05:50:09;;;;;;;105.78;36.10;;;;;;;9.73;78.27;102780.61;1700954;84;21342;-74
2021/10/20 05:52:44;;;;;;;86.65;36.13;;;;;;;9.84;78.19;102790.59;1695210;84;21980;-76
2021/10/20 05:55:20;;;;;;;81.82;36.63;;;;;;;10.02;77.90;102792.30;1699577;84;21959;-79
2021/10/20 05:57:53;;;;;;;79.00;36.27;;;;;;;10.19;77.67;102793.72;1705029;84;21340;-81
2021/10/20 06:00:28;;;;;;;82.88;37.95;;;;;;;10.37;77.51;102787.06;1696676;84;21377;-78
2021/10/20 06:03:01;;;;;;;86.63;37.05;;;;;;;10.54;77.14;102781.99;1697755;84;21235;-76
2021/10/20 06:05:35;;;;;;;88.90;40.50;;;;;;;10.63;76.79;102787.14;1698042;84;21401;-76
2021/10/20 06:08:10;;;;;;;80.90;38.58;;;;;;;10.67;76.50;102787.06;1695695;84;21203;-78
2021/10/20 06:10:44;;;;;;;84.42;36.33;;;;;;;10.74;76.61;102794.00;1705117;83;21332;-77
2021/10/20 06:13:16;;;;;;;89.62;40.15;;;;;;;10.82;76.61;102790.50;1702425;84;21317;-73
2021/10/20 06:15:50;;;;;;;86.70;39.88;;;;;;;11.00;76.71;102789.36;1700407;84;21227;-81
2021/10/20 06:18:23;;;;;;;93.42;41.45;;;;;;;11.15;76.53;102789.17;1699951;84;21421;-70
2021/10/20 06:20:57;;;;;;;98.13;40.53;;;;;;;11.24;76.25;102786.48;1700125;83;21318;-80
2021/10/20 06:23:30;;;;;;;79.35;41.60;;;;;;;11.33;75.99;102783.30;1700320;84;21356;-74
2021/10/20 06:26:02;;;;;;;85.03;42.45;;;;;;;11.45;75.84;102788.55;1699117;84;21341;-75
2021/10/20 06:28:35;;;;;;;88.30;40.30;;;;;;;11.56;75.41;102785.09;1705624;83;21367;-76
2021/10/20 06:31:08;;;;;;;81.10;41.33;;;;;;;11.66;74.90;102787.46;1703313;82;21222;-72
2021/10/20 06:33:42;;;;;;;88.33;43.52;;;;;;;11.77;74.67;102789.07;1704011;84;21400;-72
2021/10/20 06:36:44;;;;;;;;;;;;;;;11.92;74.40;102779.92;1704668;84;21182;-71
2021/10/20 06:39:20;;;;;;;78.00;42.43;;;;;;;12.09;73.97;102785.34;1700721;84;20256;-74
2021/10/20 06:41:52;;;;;;;83.78;43.50;;;;;;;12.25;73.47;102784.00;1697852;84;21356;-74
2021/10/20 06:44:26;;;;;;;85.37;43.07;;;;;;;12.33;73.05;102792.09;1700779;84;21316;-73
2021/10/20 06:46:59;;;;;;;82.12;41.53;;;;;;;12.43;72.87;102786.92;1698696;84;21199;-75
2021/10/20 06:49:33;;;;;;;87.27;44.88;;;;;;;12.51;72.35;102788.92;1700460;83;21397;-72
2021/10/20 06:52:06;;;;;;;101.20;44.33;;;;;;;12.55;72.08;102787.41;1692585;83;21388;-73
2021/10/20 06:54:38;;;;;;;100.42;45.92;;;;;;;12.61;71.75;102792.09;1698914;83;21888;-72
2021/10/20 06:57:11;;;;;;;91.12;44.63;;;;;;;12.65;71.42;102793.34;1696140;84;21333;-72
2021/10/20 06:59:44;;;;;;;101.90;42.73;;;;;;;12.69;71.25;102786.25;1691905;84;21279;-73
2021/10/20 07:02:20;;;;;;;105.67;41.70;;;;;;;12.80;71.06;102796.70;1683304;83;21274;-73
2021/10/20 07:04:56;;;;;;;97.08;43.75;;;;;;;12.94;70.97;102787.17;1695799;84;21199;-74
2021/10/20 07:07:30;;;;;;;93.30;43.08;;;;;;;13.09;70.40;102789.13;1700439;84;21725;-71
2021/10/20 07:10:03;;;;;;;89.90;42.60;;;;;;;13.20;69.73;102795.38;1702681;84;21321;-74
2021/10/20 07:12:35;;;;;;;97.08;41.13;;;;;;;13.33;69.27;102795.83;1699562;83;21396;-77
2021/10/20 07:15:10;;;;;;;108.45;43.42;;;;;;;13.43;68.86;102797.02;1693940;84;21307;-77
2021/10/20 07:17:44;;;;;;;98.33;44.55;;;;;;;13.49;68.38;102793.84;1698850;84;21254;-79
2021/10/20 07:20:18;;;;;;;99.10;45.23;;;;;;;13.55;68.33;102798.52;1697540;82;21345;-77
2021/10/20 07:22:51;;;;;;;101.53;44.63;;;;;;;13.61;68.37;102798.47;1694901;83;21314;-77
2021/10/20 07:25:24;;;;;;;96.82;45.43;;;;;;;13.69;68.06;102798.73;1689226;84;21451;-75
2021/10/20 07:27:57;;;;;;;104.05;43.23;;;;;;;13.75;67.84;102794.46;1694897;84;21337;-72
2021/10/20 07:30:30;;;;;;;102.87;43.02;;;;;;;13.80;67.53;102794.62;1679852;84;21191;-76
2021/10/20 07:33:03;;;;;;;89.90;44.08;;;;;;;13.88;67.25;102797.11;1693889;84;21251;-75
2021/10/20 07:35:39;;;;;;;113.60;45.95;;;;;;;14.09;67.18;102789.70;1695355;82;21230;-79
2021/10/20 07:38:12;;;;;;;122.40;47.20;;;;;;;14.09;67.18;102789.70;1694532;84;21378;-76
2021/10/20 07:40:46;;;;;;;71.37;33.60;;;;;;;14.21;66.78;102788.41;1696126;82;21380;-76
2021/10/20 07:43:19;;;;;;;104.38;34.75;;;;;;;14.31;66.14;102790.95;1700113;82;21910;-76
2021/10/20 07:45:52;;;;;;;86.28;33.63;;;;;;;14.37;65.15;102785.83;1710454;82;21958;-77
2021/10/20 07:48:25;;;;;;;41.00;24.10;;;;;;;14.40;64.43;102785.38;1703649;82;21349;-76
2021/10/20 07:50:57;;;;;;;44.55;21.80;;;;;;;14.42;63.46;102783.19;1697461;84;21894;-76
2021/10/20 07:53:30;;;;;;;46.60;24.37;;;;;;;14.43;63.12;102779.30;1698399;83;21250;-75
2021/10/20 07:56:04;;;;;;;48.10;23.07;;;;;;;14.46;62.70;102783.05;1731217;82;21340;-78
2021/10/20 07:58:36;;;;;;;46.65;22.52;;;;;;;14.51;62.20;102772.55;1692374;84;21361;-74
2021/10/20 08:01:11;;;;;;;51.33;23.22;;;;;;;14.51;61.84;102776.21;1695650;84;21192;-77
2021/10/20 08:03:44;;;;;;;39.90;20.82;;;;;;;14.51;61.76;102776.21;1692955;84;21266;-81
2021/10/20 08:06:18;;;;;;;44.35;22.00;;;;;;;14.53;61.54;102775.95;1698579;82;21292;-74
2021/10/20 08:08:50;;;;;;;44.67;22.55;;;;;;;14.53;61.20;102776.81;1697551;84;21353;-80
2021/10/20 08:11:23;;;;;;;39.15;21.52;;;;;;;14.54;61.11;102777.12;1694267;84;21860;-78
2021/10/20 08:13:57;;;;;;;54.85;21.37;;;;;;;14.58;61.11;102774.17;1696420;83;21424;-77
2021/10/20 08:16:32;;;;;;;48.55;23.62;;;;;;;14.58;61.11;102774.17;1699171;83;21239;-79
2021/10/20 08:19:04;;;;;;;;;;;;;;;14.59;60.88;102770.81;1700964;84;21412;-74
2021/10/20 08:21:36;;;;;;;42.83;22.40;;;;;;;14.58;61.09;102771.38;1698156;84;20602;-74
2021/10/20 08:24:10;;;;;;;40.80;22.37;;;;;;;14.59;61.29;102774.48;1697273;84;21251;-75
2021/10/20 08:26:43;;;;;;;45.65;23.10;;;;;;;14.60;61.36;102771.98;1703592;83;21712;-76
2021/10/20 08:29:16;;;;;;;41.20;24.53;;;;;;;14.64;61.86;102778.82;1697872;84;21184;-74
2021/10/20 08:31:51;;;;;;;48.25;23.98;;;;;;;14.71;62.46;102775.38;1695810;84;21235;-76
2021/10/20 08:34:24;;;;;;;38.63;22.93;;;;;;;14.79;62.80;102779.80;1702389;84;21840;-76
2021/10/20 08:36:56;;;;;;;40.60;23.50;;;;;;;14.85;63.01;102779.69;1698503;84;21199;-76
2021/10/20 08:39:29;;;;;;;36.88;21.85;;;;;;;14.93;63.13;102769.58;1695988;84;21557;-77
2021/10/20 08:42:02;;;;;;;;;;;;;;;14.99;63.22;102768.63;1699690;84;21357;-74
2021/10/20 08:44:34;;;;;;;34.13;20.30;;;;;;;15.03;63.34;102757.25;1700717;84;20599;-75
2021/10/20 08:47:11;;;;;;;;;;;;;;;15.03;63.34;102757.25;1698750;84;21348;-74
2021/10/20 08:49:44;;;;;;;42.00;24.12;;;;;;;15.01;63.60;102752.98;1701129;83;20613;-74
2021/10/20 08:52:16;;;;;;;36.98;20.55;;;;;;;14.95;63.96;102754.80;1693899;84;21317;-75
2021/10/20 08:54:50;;;;;;;37.40;21.97;;;;;;;14.92;64.34;102744.63;1693054;84;21705;-73
2021/10/20 08:57:23;;;;;;;36.30;20.52;;;;;;;14.88;64.39;102744.27;1696986;84;21191;-75
2021/10/20 08:59:57;;;;;;;35.00;20.57;;;;;;;14.85;64.48;102736.89;1702102;84;21258;-73
2021/10/20 09:02:29;;;;;;;33.80;19.25;;;;;;;14.84;64.24;102733.23;1696715;84;21373;-76
2021/10/20 09:05:02;;;;;;;42.27;21.95;;;;;;;14.86;64.39;102731.03;1681799;84;21218;-74
2021/10/20 09:07:37;;;;;;;42.80;21.42;;;;;;;14.87;64.47;102720.19;1702002;84;21191;-74
2021/10/20 09:10:10;;;;;;;36.77;21.35;;;;;;;14.89;64.78;102725.52;1697614;82;21389;-73
2021/10/20 09:12:43;;;;;;;34.67;20.72;;;;;;;14.87;64.92;102729.97;1702012;82;21434;-74
2021/10/20 09:15:20;;;;;;;30.85;19.67;;;;;;;14.81;65.37;102725.33;1681365;84;21797;-75
2021/10/20 09:18:11;;;;;;;32.45;19.82;;;;;;;14.77;65.69;102724.09;1709835;83;21245;-76
2021/10/20 09:20:46;;;;;;;31.27;19.15;;;;;;;14.75;65.53;102723.48;1694623;84;21901;-78
2021/10/20 09:23:20;;;;;;;34.83;19.00;;;;;;;14.75;65.53;102723.48;1705073;83;21970;-76
2021/10/20 09:25:58;;;;;;;31.45;18.62;;;;;;;14.75;65.18;102721.22;1699896;83;21253;-74
2021/10/20 09:28:38;;;;;;;37.40;19.25;;;;;;;14.78;65.10;102717.97;1694305;83;21727;-74
2021/10/20 09:31:12;;;;;;;35.00;19.50;;;;;;;14.76;65.10;102697.22;1693964;83;21343;-76
2021/10/20 09:33:46;;;;;;;43.13;23.50;;;;;;;14.76;65.08;102700.02;1704111;83;21250;-74
2021/10/20 09:36:22;;;;;;;54.00;22.25;;;;;;;14.79;65.13;102694.49;1626702;86;21316;-74
2021/10/20 09:38:55;;;;;;;34.45;19.92;;;;;;;14.83;65.22;102690.11;1708377;82;21569;-77
2021/10/20 09:41:28;;;;;;;32.65;16.17;;;;;;;14.90;65.46;102691.71;1714458;83;21231;-79
2021/10/20 09:44:00;;;;;;;27.75;14.98;;;;;;;15.02;64.75;102682.80;1708255;83;21762;-79
2021/10/20 09:46:42;;;;;;;32.67;16.30;;;;;;;15.13;63.96;102685.30;1704521;83;21784;-77
2021/10/20 09:49:33;;;;;;;24.65;13.28;;;;;;;15.23;63.85;102692.02;1708119;83;21182;-77
2021/10/20 09:52:01;;;;;;;23.73;13.10;;;;;;;15.32;62.45;102679.89;1705939;83;21265;-74
2021/10/20 09:54:38;;;;;;;21.70;12.45;;;;;;;15.36;61.54;102678.35;1699807;83;21724;-76
2021/10/20 09:57:12;;;;;;;22.02;12.55;;;;;;;15.38;60.94;102675.61;1708482;83;21765;-78
2021/10/20 09:59:46;;;;;;;24.57;12.60;;;;;;;15.43;60.82;102673.48;1710710;82;21782;-72
2021/10/20 10:02:18;;;;;;;19.80;11.55;;;;;;;15.45;60.35;102669.91;1716661;82;21346;-75
2021/10/20 10:04:53;;;;;;;24.02;11.88;;;;;;;15.45;60.09;102667.94;1702042;82;21198;-72
2021/10/20 10:07:28;;;;;;;21.30;12.37;;;;;;;15.46;60.10;102662.64;1713029;82;21283;-73
2021/10/20 10:10:01;;;;;;;25.05;11.97;;;;;;;15.47;60.39;102667.70;1712732;83;21285;-69
2021/10/20 10:12:37;;;;;;;22.75;12.82;;;;;;;15.49;60.37;102670.56;1711487;82;21248;-74
2021/10/20 10:15:11;;;;;;;23.57;13.65;;;;;;;15.51;60.34;102672.56;1706000;83;21215;-73
2021/10/20 10:17:46;;;;;;;20.35;12.05;;;;;;;15.52;60.18;102660.26;1703830;82;21291;-76
2021/10/20 10:20:31;;;;;;;21.40;12.43;;;;;;;15.50;60.41;102656.00;1708424;82;21375;-72
2021/10/20 10:23:06;;;;;;;20.60;11.78;;;;;;;15.50;60.65;102658.27;1713911;82;21886;-72
2021/10/20 10:25:41;;;;;;;23.30;11.78;;;;;;;15.49;60.84;102648.16;1679480;83;21269;-72
2021/10/20 10:28:23;;;;;;;30.65;13.22;;;;;;;15.49;61.04;102640.30;1664376;86;21220;-75
2021/10/20 10:31:08;;;;;;;27.75;14.85;;;;;;;15.50;61.41;102642.00;1668909;84;21296;-69
2021/10/20 10:33:53;;;;;;;27.32;13.08;;;;;;;15.51;61.09;102636.16;1667344;84;21246;-70
2021/10/20 10:36:30;;;;;;;21.40;10.82;;;;;;;15.52;60.93;102633.66;1667300;84;21309;-74
2021/10/20 10:39:08;;;;;;;23.60;10.82;;;;;;;15.53;60.56;102639.55;1666529;84;21715;-73
2021/10/20 10:42:05;;;;;;;24.35;10.63;;;;;;;15.53;59.98;102631.72;1666230;86;21201;-71
2021/10/20 10:44:51;;;;;;;18.48;10.45;;;;;;;15.52;59.59;102628.06;1667693;86;21209;-72
2021/10/20 10:47:27;;;;;;;14.68;10.48;;;;;;;15.51;59.44;102634.77;1667397;84;21270;-71
2021/10/20 10:50:00;;;;;;;21.02;10.85;;;;;;;15.48;59.23;102621.27;1673017;84;21402;-72
2021/10/20 10:52:36;;;;;;;19.57;10.10;;;;;;;15.44;59.21;102619.17;1671454;84;21411;-70
2021/10/20 10:55:18;;;;;;;23.20;10.98;;;;;;;15.44;59.44;102614.98;1674072;84;21253;-69
2021/10/20 10:57:56;;;;;;;20.92;10.30;;;;;;;15.46;59.64;102610.84;1677997;84;21256;-71
2021/10/20 11:00:49;;;;;;;18.10;10.00;;;;;;;15.50;59.89;102613.46;1671197;84;21973;-72
2021/10/20 11:03:30;;;;;;;21.23;12.27;;;;;;;15.54;59.64;102604.88;1667366;84;21336;-71
2021/10/20 11:06:18;;;;;;;18.85;10.23;;;;;;;15.56;59.44;102615.28;1667842;86;21865;-75
2021/10/20 11:08:51;;;;;;;24.92;10.88;;;;;;;15.56;59.40;102608.27;1666483;86;21222;-77
2021/10/20 11:11:27;;;;;;;18.15;10.70;;;;;;;15.57;59.21;102607.17;1665089;86;21258;-72
2021/10/20 11:14:05;;;;;;;21.40;10.72;;;;;;;15.57;58.85;102604.38;1663870;84;21209;-74
2021/10/20 11:16:39;;;;;;;20.52;10.90;;;;;;;15.56;58.39;102598.48;1663932;86;21457;-75
2021/10/20 11:19:16;;;;;;;20.15;12.28;;;;;;;15.54;58.31;102602.08;1656975;86;21230;-77
2021/10/20 11:22:04;;;;;;;23.05;11.93;;;;;;;15.56;58.23;102598.48;1654526;85;21427;-71
2021/10/20 11:24:47;;;;;;;21.77;11.10;;;;;;;15.59;58.18;102595.73;1638419;86;21274;-73
2021/10/20 11:27:24;;;;;;;18.80;9.85;;;;;;;15.62;57.96;102593.28;1659374;85;21455;-72
2021/10/20 11:30:04;;;;;;;15.48;10.28;;;;;;;15.63;57.51;102594.98;1654678;85;21353;-74
2021/10/20 11:32:38;;;;;;;16.55;11.05;;;;;;;15.62;57.32;102600.29;1658243;84;21848;-82
2021/10/20 11:35:29;;;;;;;21.27;10.75;;;;;;;15.63;56.96;102596.38;1658567;86;22073;-74
2021/10/20 11:38:15;;;;;;;23.10;10.45;;;;;;;15.62;56.85;102594.69;1656042;84;21356;-71
2021/10/20 11:40:53;;;;;;;19.37;11.30;;;;;;;15.60;56.82;102580.09;1606508;88;21742;-77
2021/10/20 11:43:35;;;;;;;19.82;10.10;;;;;;;15.58;56.56;102576.66;1608902;88;21453;-75
2021/10/20 11:46:03;;;;;;;19.48;9.78;;;;;;;15.57;56.80;102583.94;1604294;87;21292;-77